Time;durP1;ratioP1;P1;durP2;ratioP2;P2;SDS_P1;SDS_P2;PMS_P1;PMS_P2;Temp;Humidity;BMP_temperature;BMP_pressure;BME280_temperature;BME280_humidity;BME280_pressure;Samples;Min_cycle;Max_cycle;Signal;HPM_P1;HPM_P2
2023/03/18 00:00:13;;;;;;;15.23;10.00;;;13.70;43.30;;;;;;5039884;28;20187;-91
2023/03/18 00:02:40;;;;;;;13.90;9.47;;;13.70;46.00;;;;;;5054511;28;20217;-83
2023/03/18 00:05:07;;;;;;;16.10;9.93;;;13.70;48.40;;;;;;5053780;28;20260;-87
2023/03/18 00:07:35;;;;;;;15.10;9.90;;;13.70;51.10;;;;;;5054730;28;20181;-86
2023/03/18 00:10:01;;;;;;;14.13;9.53;;;13.60;54.60;;;;;;5060371;28;20201;-82
2023/03/18 00:12:27;;;;;;;15.67;10.37;;;13.60;58.20;;;;;;5056642;28;20184;-82
2023/03/18 00:14:52;;;;;;;15.00;10.03;;;13.60;60.50;;;;;;5056716;28;20153;-85
2023/03/18 00:17:20;;;;;;;13.47;10.03;;;13.60;62.10;;;;;;5057043;28;20231;-83
2023/03/18 00:19:51;;;;;;;14.83;10.83;;;13.60;63.90;;;;;;5055536;28;20245;-85
2023/03/18 00:22:18;;;;;;;16.10;10.83;;;13.60;65.00;;;;;;5056887;28;20252;-83
2023/03/18 00:24:44;;;;;;;15.60;9.83;;;13.70;63.90;;;;;;5047899;28;20629;-90
2023/03/18 00:27:10;;;;;;;16.03;10.20;;;13.70;64.50;;;;;;5042816;28;20191;-91
2023/03/18 00:29:39;;;;;;;17.00;10.67;;;13.70;65.30;;;;;;5041449;28;20257;-88
2023/03/18 00:32:05;;;;;;;18.50;11.33;;;13.70;65.30;;;;;;5038351;28;20226;-91
2023/03/18 00:34:32;;;;;;;17.03;11.57;;;13.60;68.30;;;;;;5045003;28;20171;-89
2023/03/18 00:36:59;;;;;;;16.53;10.70;;;13.70;72.20;;;;;;5077294;28;20199;-90
2023/03/18 00:39:25;;;;;;;18.40;12.00;;;13.40;79.00;;;;;;5068160;28;20173;-89
2023/03/18 00:41:55;;;;;;;16.40;11.40;;;13.30;84.90;;;;;;5070626;28;20194;-90
2023/03/18 00:44:21;;;;;;;15.97;11.93;;;13.20;89.00;;;;;;5074866;28;20227;-87
2023/03/18 00:46:47;;;;;;;16.93;12.23;;;13.40;91.10;;;;;;5072709;28;20215;-88
2023/03/18 00:49:13;;;;;;;17.67;12.30;;;13.20;91.50;;;;;;5060230;28;20252;-90
2023/03/18 00:51:40;;;;;;;16.07;11.63;;;13.20;91.00;;;;;;5061112;28;20180;-91
2023/03/18 00:54:09;;;;;;;14.03;11.73;;;13.20;93.10;;;;;;5057677;28;20171;-89
2023/03/18 00:56:39;;;;;;;14.93;12.00;;;13.10;95.20;;;;;;5060642;28;20223;-89
2023/03/18 00:59:05;;;;;;;16.87;12.23;;;13.00;96.40;;;;;;5060545;28;20275;-89
2023/03/18 01:01:35;;;;;;;18.93;12.00;;;13.10;98.10;;;;;;5057471;28;20208;-89
2023/03/18 01:04:05;;;;;;;19.90;13.90;;;13.00;98.80;;;;;;5068107;28;20244;-89
2023/03/18 01:06:33;;;;;;;19.53;13.53;;;13.00;98.80;;;;;;5059366;28;20179;-90
2023/03/18 01:09:00;;;;;;;23.07;13.70;;;13.10;99.90;;;;;;5065098;28;20181;-88
2023/03/18 01:11:30;;;;;;;18.97;13.53;;;12.90;99.90;;;;;;5062368;28;20528;-89
2023/03/18 01:13:56;;;;;;;16.73;13.17;;;12.90;99.90;;;;;;5060921;28;20179;-88
2023/03/18 01:16:22;;;;;;;15.73;12.70;;;13.00;99.90;;;;;;5058019;28;20211;-87
2023/03/18 01:18:48;;;;;;;17.67;13.57;;;12.90;99.90;;;;;;5056784;28;20246;-84
2023/03/18 01:21:14;;;;;;;18.03;13.30;;;12.90;99.90;;;;;;5058378;28;20198;-88
2023/03/18 01:23:41;;;;;;;18.40;13.13;;;13.10;99.90;;;;;;5057449;28;20182;-85
2023/03/18 01:26:07;;;;;;;14.83;11.73;;;13.00;99.90;;;;;;5056474;28;20177;-90
2023/03/18 01:28:32;;;;;;;18.50;12.83;;;13.00;99.30;;;;;;5064639;28;20321;-87
2023/03/18 01:30:58;;;;;;;16.30;12.27;;;13.00;99.90;;;;;;5061603;28;20655;-89
2023/03/18 01:33:25;;;;;;;17.60;12.60;;;12.90;99.90;;;;;;5056348;28;20171;-90
2023/03/18 01:35:55;;;;;;;17.47;12.80;;;13.20;99.90;;;;;;5056613;28;20196;-90
2023/03/18 01:38:22;;;;;;;19.10;14.03;;;13.00;99.90;;;;;;5058207;28;20175;-90
2023/03/18 01:40:48;;;;;;;18.53;13.10;;;13.10;99.90;;;;;;5055788;28;20171;-87
2023/03/18 01:43:26;;;;;;;20.20;13.13;;;13.20;99.00;;;;;;5062932;28;20404;-89
2023/03/18 01:45:58;;;;;;;18.60;13.43;;;13.10;99.00;;;;;;5060263;28;20170;-89
2023/03/18 01:48:34;;;;;;;17.73;12.17;;;13.20;98.90;;;;;;5056382;28;20268;-90
2023/03/18 01:51:04;;;;;;;18.80;13.30;;;13.20;98.20;;;;;;5056265;28;20178;-88
2023/03/18 01:53:42;;;;;;;15.80;12.83;;;13.20;97.40;;;;;;5056962;28;20188;-90
2023/03/18 01:56:08;;;;;;;17.10;12.90;;;13.10;97.10;;;;;;5066882;28;20167;-90
2023/03/18 01:58:51;;;;;;;17.23;12.03;;;13.00;98.40;;;;;;5074645;28;20193;-82
2023/03/18 02:01:52;;;;;;;14.93;12.00;;;13.10;99.60;;;;;;5077363;28;20218;-87
2023/03/18 02:04:22;;;;;;;16.77;12.60;;;13.10;99.70;;;;;;5057336;28;20530;-91
2023/03/18 02:06:47;;;;;;;16.60;12.83;;;13.20;97.80;;;;;;5057134;28;20202;-86
2023/03/18 02:09:13;;;;;;;15.83;11.90;;;13.10;97.40;;;;;;5056485;28;20544;-88
2023/03/18 02:11:43;;;;;;;16.50;12.10;;;13.10;97.80;;;;;;5054915;28;20180;-88
2023/03/18 02:14:12;;;;;;;17.33;12.47;;;13.00;98.20;;;;;;5055462;28;20489;-86
2023/03/18 02:17:01;;;;;;;16.60;12.07;;;12.90;98.90;;;;;;5060474;28;20172;-89
2023/03/18 02:19:41;;;;;;;15.67;11.83;;;12.90;99.90;;;;;;5055143;28;20167;-90
2023/03/18 02:22:23;;;;;;;16.63;11.73;;;12.80;99.60;;;;;;5056022;28;20250;-90
2023/03/18 02:24:51;;;;;;;16.13;10.60;;;12.80;99.50;;;;;;5058246;28;20197;-90
2023/03/18 02:27:26;;;;;;;16.07;11.10;;;12.80;99.70;;;;;;5062160;28;20180;-87
2023/03/18 02:30:04;;;;;;;16.30;11.77;;;12.70;99.90;;;;;;5076579;28;20188;-82
2023/03/18 02:32:32;;;;;;;15.57;10.97;;;12.80;99.90;;;;;;5077096;28;20379;-86
2023/03/18 02:35:03;;;;;;;14.87;11.07;;;12.70;99.90;;;;;;5066726;28;20239;-89
2023/03/18 02:37:29;;;;;;;14.77;10.73;;;12.80;99.90;;;;;;5056857;28;20186;-88
2023/03/18 02:39:54;;;;;;;13.83;11.27;;;12.70;99.20;;;;;;5055848;28;20232;-88
2023/03/18 02:42:30;;;;;;;15.07;10.80;;;12.80;99.50;;;;;;5056444;28;20622;-85
2023/03/18 02:44:58;;;;;;;14.93;10.57;;;12.70;99.30;;;;;;5061392;28;20172;-85
2023/03/18 02:47:27;;;;;;;13.90;10.80;;;12.70;99.60;;;;;;5059307;28;20199;-89
2023/03/18 02:49:53;;;;;;;15.07;11.10;;;12.80;99.80;;;;;;5059734;28;20192;-87
2023/03/18 02:52:19;;;;;;;18.07;11.83;;;12.70;99.20;;;;;;5059797;28;20201;-88
2023/03/18 02:54:45;;;;;;;16.80;11.60;;;12.70;99.20;;;;;;5055839;28;20628;-88
2023/03/18 02:57:10;;;;;;;16.30;11.43;;;12.70;98.90;;;;;;5054672;28;20184;-88
2023/03/18 02:59:36;;;;;;;17.13;11.97;;;12.70;98.60;;;;;;5054108;28;20181;-88
2023/03/18 03:02:02;;;;;;;14.13;11.77;;;12.60;99.50;;;;;;5053616;28;20541;-88
2023/03/18 03:04:30;;;;;;;17.20;11.33;;;12.50;99.40;;;;;;5064211;28;20177;-87
2023/03/18 03:07:00;;;;;;;16.70;12.00;;;12.70;99.40;;;;;;5055501;28;20602;-88
2023/03/18 03:09:26;;;;;;;15.57;11.67;;;12.40;99.90;;;;;;5058346;28;20181;-87
2023/03/18 03:11:51;;;;;;;15.03;11.73;;;12.40;99.90;;;;;;5055546;28;20178;-89
2023/03/18 03:14:17;;;;;;;15.60;11.57;;;12.40;99.90;;;;;;5055369;28;20173;-88
2023/03/18 03:16:43;;;;;;;13.87;11.03;;;12.30;99.90;;;;;;5068578;28;20227;-88
2023/03/18 03:19:10;;;;;;;17.60;11.40;;;12.40;99.90;;;;;;5055818;28;20173;-89
2023/03/18 03:21:37;;;;;;;14.43;10.90;;;12.30;99.90;;;;;;5055671;28;20198;-89
2023/03/18 03:24:04;;;;;;;16.07;11.93;;;12.30;99.90;;;;;;5055657;28;20178;-88
2023/03/18 03:26:32;;;;;;;15.53;11.37;;;12.20;99.90;;;;;;5063836;28;20227;-86
2023/03/18 03:28:59;;;;;;;16.53;10.97;;;12.20;99.90;;;;;;5073453;28;20187;-86
2023/03/18 03:31:26;;;;;;;14.80;11.50;;;12.20;99.90;;;;;;5069179;28;20174;-85
2023/03/18 03:33:52;;;;;;;16.27;11.10;;;12.10;99.90;;;;;;5078099;28;20150;-88
2023/03/18 03:36:18;;;;;;;13.40;11.07;;;12.10;99.90;;;;;;5064301;28;20637;-88
2023/03/18 03:38:44;;;;;;;14.27;10.77;;;12.10;99.90;;;;;;5059883;28;20174;-89
2023/03/18 03:41:11;;;;;;;14.83;11.13;;;12.10;99.90;;;;;;5057728;28;20643;-89
2023/03/18 03:43:38;;;;;;;15.13;10.93;;;12.10;99.90;;;;;;5058034;28;20177;-89
2023/03/18 03:46:04;;;;;;;14.23;10.30;;;12.10;99.90;;;;;;5058856;28;20173;-89
2023/03/18 03:48:30;;;;;;;13.03;10.67;;;12.10;99.90;;;;;;5058005;28;20803;-89
2023/03/18 03:50:56;;;;;;;13.87;10.57;;;12.30;99.90;;;;;;5057038;28;20719;-88
2023/03/18 03:53:23;;;;;;;17.00;11.03;;;12.10;99.90;;;;;;5058223;28;20183;-88
2023/03/18 03:55:49;;;;;;;13.33;10.10;;;12.10;99.90;;;;;;5071230;28;20275;-85
2023/03/18 03:58:18;;;;;;;12.63;10.10;;;12.00;99.90;;;;;;5072935;28;20196;-88
2023/03/18 04:00:43;;;;;;;13.67;9.77;;;12.10;99.90;;;;;;5062638;28;20195;-88
2023/03/18 04:03:09;;;;;;;14.77;10.80;;;12.00;99.90;;;;;;5057517;28;20691;-89
2023/03/18 04:05:37;;;;;;;11.57;10.13;;;12.10;99.90;;;;;;5057366;28;20517;-90
2023/03/18 04:08:03;;;;;;;12.47;10.10;;;12.10;99.90;;;;;;5059927;28;20201;-88
2023/03/18 04:10:29;;;;;;;13.27;9.87;;;12.10;99.90;;;;;;5061366;28;20170;-86
2023/03/18 04:12:55;;;;;;;16.17;10.33;;;12.20;99.90;;;;;;5057012;28;20168;-88
2023/03/18 04:15:21;;;;;;;13.43;10.53;;;12.10;99.90;;;;;;5056753;28;20203;-87
2023/03/18 04:17:49;;;;;;;13.20;10.23;;;12.20;99.90;;;;;;5057168;28;20656;-88
2023/03/18 04:20:16;;;;;;;12.40;10.30;;;12.10;99.90;;;;;;5058495;28;20179;-89
2023/03/18 04:22:43;;;;;;;13.73;10.17;;;12.00;99.90;;;;;;5063184;28;20216;-85
2023/03/18 04:25:11;;;;;;;15.63;10.43;;;12.10;99.90;;;;;;5077942;28;20165;-86
2023/03/18 04:27:37;;;;;;;11.47;10.27;;;12.00;99.90;;;;;;5064363;28;20189;-87
2023/03/18 04:30:05;;;;;;;11.47;10.03;;;12.00;99.90;;;;;;5058327;28;20273;-88
2023/03/18 04:32:30;;;;;;;13.50;9.93;;;12.00;99.90;;;;;;5062435;28;20205;-88
2023/03/18 04:34:56;;;;;;;13.30;10.10;;;12.00;99.90;;;;;;5071611;28;20208;-85
2023/03/18 04:37:24;;;;;;;15.00;10.87;;;12.10;99.90;;;;;;5072682;28;20205;-85
2023/03/18 04:39:49;;;;;;;13.93;10.73;;;12.00;99.90;;;;;;5072266;28;20204;-86
2023/03/18 04:42:16;;;;;;;14.53;10.60;;;12.00;99.70;;;;;;5064300;28;20672;-87
2023/03/18 04:44:43;;;;;;;15.03;10.93;;;11.90;99.90;;;;;;5056572;28;20170;-89
2023/03/18 04:47:09;;;;;;;13.47;11.37;;;11.70;99.90;;;;;;5055603;28;20177;-88
2023/03/18 04:49:36;;;;;;;12.75;11.32;;;11.70;99.90;;;;;;5006127;28;1142625;-87
2023/03/18 04:52:03;;;;;;;14.90;12.07;;;11.70;99.90;;;;;;5074252;28;20165;-83
2023/03/18 04:54:29;;;;;;;14.33;11.83;;;11.70;99.90;;;;;;5074846;28;20170;-85
2023/03/18 04:56:54;;;;;;;13.50;11.77;;;11.60;99.90;;;;;;5089370;28;20250;-88
2023/03/18 04:59:23;;;;;;;16.13;12.53;;;11.60;99.90;;;;;;5082851;28;20177;-88
2023/03/18 05:01:49;;;;;;;15.00;11.53;;;11.60;99.90;;;;;;5076260;28;20668;-90
2023/03/18 05:04:16;;;;;;;14.07;12.57;;;11.50;99.90;;;;;;5077370;28;20183;-89
2023/03/18 05:06:42;;;;;;;16.13;12.23;;;11.60;99.90;;;;;;5079687;28;20177;-88
2023/03/18 05:09:08;;;;;;;19.17;12.30;;;11.50;99.90;;;;;;5077369;28;20176;-88
2023/03/18 05:11:34;;;;;;;14.90;12.40;;;11.50;99.90;;;;;;5083753;28;20168;-87
2023/03/18 05:14:03;;;;;;;15.00;13.23;;;11.40;99.90;;;;;;5098348;28;20188;-88
2023/03/18 05:16:28;;;;;;;15.80;12.97;;;11.50;99.90;;;;;;5097333;28;20168;-87
2023/03/18 05:18:54;;;;;;;17.47;13.50;;;11.40;99.90;;;;;;5089694;28;20164;-87
2023/03/18 05:21:20;;;;;;;16.90;13.47;;;11.40;99.90;;;;;;5076524;28;20990;-88
2023/03/18 05:23:46;;;;;;;17.00;13.07;;;11.30;99.90;;;;;;5076394;28;20176;-88
2023/03/18 05:26:12;;;;;;;16.57;13.30;;;11.30;99.90;;;;;;5092184;28;20168;-84
2023/03/18 05:28:38;;;;;;;17.43;13.60;;;11.30;99.90;;;;;;5090914;28;20542;-85
2023/03/18 05:31:05;;;;;;;17.20;13.23;;;11.20;99.90;;;;;;5097799;28;20173;-88
2023/03/18 05:33:32;;;;;;;17.57;14.00;;;11.20;99.90;;;;;;5098520;28;20260;-88
2023/03/18 05:36:00;;;;;;;16.70;13.27;;;11.20;99.90;;;;;;5095165;28;20199;-88
2023/03/18 05:38:40;;;;;;;15.93;12.77;;;11.30;99.90;;;;;;5083516;28;20158;-90
2023/03/18 05:41:10;;;;;;;16.97;13.27;;;11.10;99.90;;;;;;5076529;28;20183;-89
2023/03/18 05:43:36;;;;;;;17.13;14.10;;;11.10;99.90;;;;;;5080967;28;20176;-87
2023/03/18 05:46:04;;;;;;;17.37;13.80;;;11.10;99.90;;;;;;5079426;28;20260;-87
2023/03/18 05:48:30;;;;;;;16.30;14.07;;;11.10;99.90;;;;;;5074988;28;20238;-85
2023/03/18 05:50:57;;;;;;;16.40;13.07;;;11.10;99.90;;;;;;5091449;28;20177;-88
2023/03/18 05:53:23;;;;;;;18.43;13.90;;;11.10;99.90;;;;;;5077623;28;20225;-91
2023/03/18 05:55:49;;;;;;;16.67;14.17;;;11.10;99.90;;;;;;5097806;28;20157;-86
2023/03/18 05:58:14;;;;;;;17.10;13.93;;;11.10;99.90;;;;;;5084495;28;20640;-89
2023/03/18 06:00:43;;;;;;;16.80;14.10;;;11.10;99.90;;;;;;5077877;28;20176;-89
2023/03/18 06:03:09;;;;;;;16.57;13.73;;;11.10;99.90;;;;;;5075662;28;20208;-89
2023/03/18 06:05:34;;;;;;;15.17;13.57;;;11.20;99.90;;;;;;5080218;28;20647;-89
2023/03/18 06:08:00;;;;;;;17.03;14.17;;;11.10;99.90;;;;;;5082195;28;20198;-87
2023/03/18 06:10:26;;;;;;;19.57;14.13;;;11.30;99.90;;;;;;5076552;28;20180;-88
2023/03/18 06:12:54;;;;;;;16.30;13.07;;;11.40;99.90;;;;;;5076551;28;20176;-89
2023/03/18 06:15:21;;;;;;;15.97;14.27;;;11.30;99.90;;;;;;5076829;28;20176;-84
2023/03/18 06:17:46;;;;;;;16.33;13.17;;;11.30;99.90;;;;;;5075601;28;20186;-87
2023/03/18 06:20:17;;;;;;;15.13;12.83;;;11.40;99.90;;;;;;5076158;28;20236;-89
2023/03/18 06:22:48;;;;;;;17.07;12.83;;;11.30;99.90;;;;;;5075897;28;20212;-87
2023/03/18 06:25:15;;;;;;;13.93;12.53;;;11.30;99.90;;;;;;5075787;28;20234;-87
2023/03/18 06:27:41;;;;;;;17.23;13.43;;;11.30;99.90;;;;;;5075861;28;20225;-89
2023/03/18 06:30:08;;;;;;;16.47;13.03;;;11.40;99.90;;;;;;5076112;28;20176;-91
2023/03/18 06:32:34;;;;;;;15.00;12.60;;;11.40;99.90;;;;;;5077117;28;20199;-89
2023/03/18 06:35:01;;;;;;;15.13;13.40;;;11.40;99.90;;;;;;5075704;28;20195;-88
2023/03/18 06:37:27;;;;;;;16.83;13.43;;;11.40;99.90;;;;;;5076943;28;20182;-88
2023/03/18 06:39:53;;;;;;;16.47;12.43;;;11.40;99.90;;;;;;5076878;28;20233;-89
2023/03/18 06:42:20;;;;;;;15.07;12.70;;;11.50;99.90;;;;;;5091071;28;20204;-90
2023/03/18 06:44:49;;;;;;;17.30;13.63;;;11.50;99.90;;;;;;5089904;28;20238;-88
2023/03/18 06:47:19;;;;;;;16.87;12.60;;;11.70;99.90;;;;;;5091708;28;20245;-86
2023/03/18 06:49:45;;;;;;;16.37;12.53;;;11.70;99.90;;;;;;5080375;28;20210;-86
2023/03/18 06:52:13;;;;;;;17.03;13.03;;;11.70;99.90;;;;;;5081578;28;20592;-87
2023/03/18 06:54:40;;;;;;;16.67;13.13;;;11.60;99.90;;;;;;5083986;28;20168;-88
2023/03/18 06:57:07;;;;;;;14.17;12.00;;;11.70;99.90;;;;;;5076660;28;20584;-88
2023/03/18 06:59:33;;;;;;;13.33;11.80;;;11.80;99.90;;;;;;5076396;28;20231;-90
2023/03/18 07:01:58;;;;;;;14.87;12.10;;;11.90;99.90;;;;;;5077200;28;20219;-90
2023/03/18 07:04:24;;;;;;;14.23;10.53;;;12.00;99.90;;;;;;5078647;28;20177;-89
2023/03/18 07:06:51;;;;;;;14.53;11.47;;;12.10;99.90;;;;;;5088613;28;20184;-89
2023/03/18 07:09:22;;;;;;;13.80;11.30;;;12.10;99.90;;;;;;5079278;28;20199;-88
2023/03/18 07:11:48;;;;;;;13.10;10.67;;;12.20;99.90;;;;;;5079682;28;20268;-88
2023/03/18 07:14:14;;;;;;;12.33;11.07;;;12.20;99.90;;;;;;5091697;28;20169;-86
2023/03/18 07:16:40;;;;;;;11.60;10.43;;;12.30;99.90;;;;;;5096677;28;20176;-87
2023/03/18 07:19:06;;;;;;;13.83;10.10;;;12.30;99.90;;;;;;5091534;28;20589;-87
2023/03/18 07:21:32;;;;;;;14.07;10.77;;;12.40;99.70;;;;;;5080809;28;20217;-89
2023/03/18 07:23:58;;;;;;;14.00;10.07;;;12.50;98.70;;;;;;5062011;28;20172;-90
2023/03/18 07:26:24;;;;;;;11.70;9.87;;;12.40;97.10;;;;;;5076014;28;20173;-90
2023/03/18 07:28:52;;;;;;;10.60;9.33;;;12.50;96.10;;;;;;5082640;28;20188;-86
2023/03/18 07:31:18;;;;;;;11.17;9.33;;;12.50;95.30;;;;;;5082303;28;20181;-88
2023/03/18 07:33:45;;;;;;;12.13;9.67;;;12.50;94.80;;;;;;5078998;28;20232;-88
2023/03/18 07:36:12;;;;;;;11.10;9.70;;;12.50;94.60;;;;;;5062180;28;20208;-89
2023/03/18 07:38:38;;;;;;;11.97;9.83;;;12.60;94.50;;;;;;5079292;28;20170;-91
2023/03/18 07:41:05;;;;;;;10.40;8.53;;;12.70;93.20;;;;;;5079091;28;20177;-91
2023/03/18 07:43:31;;;;;;;10.97;8.90;;;12.70;91.60;;;;;;5081155;28;20245;-90
2023/03/18 07:45:57;;;;;;;10.50;9.10;;;12.90;90.90;;;;;;5080268;28;20206;-89
2023/03/18 07:48:23;;;;;;;14.00;9.03;;;12.90;90.00;;;;;;5062286;28;20191;-88
2023/03/18 07:50:50;;;;;;;11.40;9.13;;;13.30;87.00;;;;;;5086249;28;20246;-86
2023/03/18 07:53:15;;;;;;;11.60;8.87;;;13.10;77.50;;;;;;5096484;28;20180;-86
2023/03/18 07:55:43;;;;;;;9.83;7.57;;;12.90;76.60;;;;;;5093540;28;20171;-89
2023/03/18 07:58:14;;;;;;;9.80;8.17;;;12.90;77.00;;;;;;5068013;28;20181;-89
2023/03/18 08:00:41;;;;;;;10.90;7.77;;;12.90;79.20;;;;;;5056385;28;20175;-87
2023/03/18 08:03:08;;;;;;;10.23;7.63;;;12.90;79.30;;;;;;5059963;28;20206;-90
2023/03/18 08:05:33;;;;;;;10.23;7.97;;;13.00;78.90;;;;;;5062355;28;20176;-89
2023/03/18 08:08:01;;;;;;;8.73;7.83;;;13.10;77.30;;;;;;5058518;28;20175;-88
2023/03/18 08:10:27;;;;;;;9.03;7.53;;;13.00;75.80;;;;;;5060812;28;20191;-87
2023/03/18 08:12:54;;;;;;;9.77;7.47;;;13.00;73.80;;;;;;5046134;28;20184;-90
2023/03/18 08:15:21;;;;;;;8.83;7.53;;;13.00;72.40;;;;;;5064102;28;20388;-90
2023/03/18 08:17:47;;;;;;;8.50;7.10;;;13.00;73.60;;;;;;5048438;28;20178;-91
2023/03/18 08:20:13;;;;;;;9.60;7.83;;;13.10;74.00;;;;;;5063452;28;20180;-88
2023/03/18 08:22:38;;;;;;;9.40;7.53;;;12.90;75.40;;;;;;5068279;28;20202;-89
2023/03/18 08:25:15;;;;;;;9.17;7.50;;;13.00;76.30;;;;;;5070338;28;20178;-91
2023/03/18 08:27:41;;;;;;;10.77;7.50;;;13.00;76.30;;;;;;5062597;28;20195;-91
2023/03/18 08:30:13;;;;;;;8.47;7.17;;;13.00;76.90;;;;;;5060850;28;20171;-88
2023/03/18 08:32:39;;;;;;;11.23;7.23;;;13.10;74.70;;;;;;5058284;28;20704;-88
2023/03/18 08:35:10;;;;;;;9.97;6.67;;;13.00;74.90;;;;;;5068653;28;20190;-89
2023/03/18 08:37:36;;;;;;;8.23;6.37;;;13.10;75.20;;;;;;5078016;28;20160;-87
2023/03/18 08:40:04;;;;;;;9.17;6.47;;;13.20;72.70;;;;;;5073370;28;20201;-89
2023/03/18 08:42:30;;;;;;;8.00;6.53;;;13.20;70.70;;;;;;5053030;28;20415;-89
2023/03/18 08:45:11;;;;;;;8.30;6.27;;;13.20;71.70;;;;;;5070127;28;20636;-93
2023/03/18 08:47:37;;;;;;;7.97;6.70;;;13.20;69.50;;;;;;5064184;28;20206;-90
2023/03/18 08:50:05;;;;;;;7.33;6.30;;;13.30;68.80;;;;;;5058162;28;20184;-87
2023/03/18 08:52:31;;;;;;;9.60;6.70;;;13.50;65.20;;;;;;5064021;28;20194;-87
2023/03/18 08:54:58;;;;;;;8.97;6.27;;;13.50;61.60;;;;;;5070354;28;20188;-89
2023/03/18 08:57:25;;;;;;;7.77;6.10;;;13.60;57.70;;;;;;5067249;28;20162;-91
2023/03/18 08:59:52;;;;;;;10.43;5.73;;;13.40;57.80;;;;;;5068961;28;20179;-88
2023/03/18 09:02:18;;;;;;;7.03;5.43;;;13.40;58.70;;;;;;5068261;28;20208;-89
2023/03/18 09:04:44;;;;;;;8.03;6.17;;;13.40;58.90;;;;;;5067412;28;20179;-86
2023/03/18 09:07:13;;;;;;;8.00;6.00;;;13.50;58.50;;;;;;5060227;28;20226;-93
2023/03/18 09:09:40;;;;;;;8.70;5.77;;;13.60;53.20;;;;;;5070329;28;20184;-90
2023/03/18 09:12:06;;;;;;;7.70;5.90;;;13.80;47.40;;;;;;5074169;28;20171;-91
2023/03/18 09:14:33;;;;;;;8.77;5.23;;;13.70;48.10;;;;;;5060455;28;20176;-91
2023/03/18 09:16:59;;;;;;;7.60;5.50;;;13.80;50.10;;;;;;5060344;28;20175;-90
2023/03/18 09:19:27;;;;;;;9.70;5.20;;;13.70;50.00;;;;;;5063639;28;20176;-88
2023/03/18 09:21:55;;;;;;;9.43;5.53;;;13.80;47.80;;;;;;5061709;28;20274;-91
2023/03/18 09:24:22;;;;;;;7.87;5.10;;;13.90;46.00;;;;;;5066784;28;20184;-91
2023/03/18 09:26:48;;;;;;;8.87;5.50;;;13.90;42.80;;;;;;5062323;28;20185;-91
2023/03/18 09:29:15;;;;;;;8.60;5.30;;;13.90;41.20;;;;;;5061428;28;20243;-89
2023/03/18 09:31:42;;;;;;;7.23;5.00;;;13.90;38.70;;;;;;5061180;28;20572;-91
2023/03/18 09:34:23;;;;;;;7.10;4.97;;;14.00;36.80;;;;;;5069169;28;20184;-93
2023/03/18 09:37:03;;;;;;;8.57;5.17;;;13.90;36.20;;;;;;5052587;28;20192;-95
2023/03/18 09:39:30;;;;;;;9.53;4.73;;;13.90;34.90;;;;;;5037418;28;20210;-90
2023/03/18 09:42:31;;;;;;;7.43;4.27;;;13.80;34.80;;;;;;5075276;28;20198;-91
2023/03/18 09:45:02;;;;;;;8.20;4.43;;;13.80;33.50;;;;;;5073633;28;20186;-88
2023/03/18 09:47:50;;;;;;;6.90;4.97;;;13.90;32.70;;;;;;5061326;28;20238;-89
2023/03/18 09:50:16;;;;;;;7.17;4.73;;;14.00;28.90;;;;;;5055735;28;20174;-86
2023/03/18 09:52:44;;;;;;;8.73;4.80;;;14.10;28.00;;;;;;5053912;28;20252;-85
2023/03/18 09:55:39;;;;;;;5.67;3.80;;;14.20;23.40;;;;;;5074029;28;20160;-87
2023/03/18 09:58:19;;;;;;;9.03;5.17;;;14.40;17.40;;;;;;5055831;28;20177;-88
2023/03/18 10:00:45;;;;;;;6.60;4.30;;;14.10;19.60;;;;;;5054930;28;20204;-92
2023/03/18 10:03:23;;;;;;;6.50;4.50;;;14.10;21.30;;;;;;5059816;28;20237;-92
2023/03/18 10:06:04;;;;;;;5.80;4.40;;;14.10;23.00;;;;;;5069033;28;20179;-87
2023/03/18 10:09:13;;;;;;;6.20;4.07;;;14.20;22.90;;;;;;5075757;28;20152;-94
2023/03/18 10:12:04;;;;;;;5.43;4.07;;;14.10;22.60;;;;;;5075243;28;20153;-87
2023/03/18 10:15:07;;;;;;;7.10;4.17;;;14.00;23.10;;;;;;5070770;28;20227;-89
2023/03/18 10:17:36;;;;;;;5.53;3.57;;;14.10;23.20;;;;;;5071538;28;20170;-90
2023/03/18 10:20:40;;;;;;;6.87;4.13;;;13.90;26.20;;;;;;5070011;28;20164;-93
2023/03/18 10:23:37;;;;;;;6.67;4.17;;;13.90;29.00;;;;;;5041028;28;20228;-93
2023/03/18 10:26:16;;;;;;;4.97;3.50;;;13.90;28.10;;;;;;5069699;28;20237;-94
2023/03/18 10:29:12;;;;;;;6.33;4.13;;;13.80;29.60;;;;;;5069689;28;20606;-89
2023/03/18 10:31:59;;;;;;;5.30;3.53;;;13.90;28.50;;;;;;5071682;28;20169;-88
2023/03/18 10:34:54;;;;;;;7.10;3.87;;;13.90;27.60;;;;;;5073806;28;20149;-89
2023/03/18 10:37:45;;;;;;;5.83;3.70;;;14.00;24.90;;;;;;5073455;28;20184;-89
2023/03/18 10:40:14;;;;;;;6.60;3.87;;;14.00;25.90;;;;;;5059108;28;20177;-87
2023/03/18 10:42:41;;;;;;;5.10;3.20;;;14.00;24.10;;;;;;5059830;28;20282;-89
2023/03/18 10:45:26;;;;;;;6.57;3.60;;;14.10;21.00;;;;;;5074341;28;20186;-88
2023/03/18 10:47:56;;;;;;;5.77;3.60;;;14.20;21.60;;;;;;5062022;28;20279;-89
2023/03/18 10:50:54;;;;;;;8.37;3.83;;;14.30;19.70;;;;;;5077873;28;20172;-90
2023/03/18 10:53:33;;;;;;;5.23;3.60;;;14.50;14.70;;;;;;5050710;28;20187;-91
2023/03/18 10:56:06;;;;;;;8.63;4.03;;;14.50;11.10;;;;;;5073280;28;20199;-90
2023/03/18 10:58:32;;;;;;;5.53;3.53;;;14.70;11.80;;;;;;5071265;28;20184;-88
2023/03/18 11:00:59;;;;;;;5.83;3.27;;;14.80;8.30;;;;;;5074129;28;20173;-88
2023/03/18 11:03:30;;;;;;;6.13;3.73;;;14.90;1.00;;;;;;5071646;28;20204;-92
2023/03/18 11:06:01;;;;;;;6.17;3.17;;;15.00;1.00;;;;;;5063704;28;20157;-90
2023/03/18 11:08:33;;;;;;;5.13;3.10;;;15.10;1.00;;;;;;5063538;28;20243;-90
2023/03/18 11:11:23;;;;;;;5.80;2.83;;;15.00;1.00;;;;;;5062464;28;20689;-92
2023/03/18 11:13:56;;;;;;;5.07;2.70;;;15.10;1.00;;;;;;5073058;28;20225;-88
2023/03/18 11:16:38;;;;;;;5.80;3.00;;;14.90;1.00;;;;;;5076954;28;20185;-88
2023/03/18 11:19:29;;;;;;;5.83;3.20;;;14.90;1.00;;;;;;5067743;28;20180;-92
2023/03/18 11:22:12;;;;;;;4.60;2.43;;;15.00;1.00;;;;;;5069408;28;20350;-89
2023/03/18 11:24:42;;;;;;;5.37;2.73;;;15.10;1.00;;;;;;5073920;28;20241;-91
2023/03/18 11:27:18;;;;;;;4.67;2.97;;;15.10;1.00;;;;;;5076735;28;20164;-84
2023/03/18 11:29:53;;;;;;;4.43;2.30;;;15.30;1.00;;;;;;5071065;28;20183;-89
2023/03/18 11:32:33;;;;;;;4.57;2.30;;;15.40;1.00;;;;;;5072630;28;20172;-90
2023/03/18 11:35:07;;;;;;;3.30;1.90;;;15.50;1.00;;;;;;5066618;28;20579;-88
2023/03/18 11:37:39;;;;;;;5.50;2.03;;;15.60;1.00;;;;;;5066060;28;20174;-88
2023/03/18 11:40:27;;;;;;;4.30;1.80;;;15.60;1.00;;;;;;5052307;28;20176;-87
2023/03/18 11:43:15;;;;;;;2.80;1.70;;;15.70;1.00;;;;;;5069063;28;20242;-88
2023/03/18 11:46:22;;;;;;;6.57;1.90;;;15.60;1.00;;;;;;5077631;28;20181;-86
2023/03/18 11:48:51;;;;;;;2.73;1.57;;;15.80;1.00;;;;;;5079581;28;20196;-87
2023/03/18 11:51:34;;;;;;;4.53;2.43;;;15.90;1.00;;;;;;5080230;28;20229;-83
2023/03/18 11:54:23;;;;;;;3.27;2.00;;;16.00;1.00;;;;;;5077865;28;20160;-89
2023/03/18 11:56:57;;;;;;;4.30;1.90;;;15.80;1.00;;;;;;5073981;28;20180;-87
2023/03/18 11:59:48;;;;;;;5.23;2.57;;;15.80;1.00;;;;;;5073941;28;20205;-89
2023/03/18 12:02:32;;;;;;;3.67;2.13;;;15.70;1.00;;;;;;5073274;28;20212;-88
2023/03/18 12:05:16;;;;;;;4.17;2.00;;;15.80;1.00;;;;;;5068399;28;20185;-92
2023/03/18 12:08:18;;;;;;;5.47;1.80;;;15.70;1.00;;;;;;5056674;28;20176;-92
2023/03/18 12:11:06;;;;;;;3.23;1.60;;;16.00;1.00;;;;;;5061019;28;20185;-91
2023/03/18 12:13:51;;;;;;;3.90;1.90;;;16.30;1.00;;;;;;5064071;28;20264;-87
2023/03/18 12:16:32;;;;;;;2.30;1.47;;;16.40;1.00;;;;;;5055037;28;20179;-90
2023/03/18 12:19:29;;;;;;;2.83;1.40;;;16.50;1.00;;;;;;5046298;28;20177;-91
2023/03/18 12:22:27;;;;;;;5.13;2.03;;;16.40;1.00;;;;;;5045901;28;20201;-93
2023/03/18 12:25:16;;;;;;;2.93;1.70;;;16.40;1.00;;;;;;5070188;28;20171;-94
2023/03/18 12:27:52;;;;;;;4.17;2.03;;;16.50;1.00;;;;;;5068385;28;20170;-91
2023/03/18 12:30:39;;;;;;;2.70;1.80;;;16.70;1.00;;;;;;5078464;28;20156;-90
2023/03/18 12:33:27;;;;;;;4.80;1.97;;;16.70;1.00;;;;;;5077732;28;20162;-89
2023/03/18 12:36:43;;;;;;;3.80;1.53;;;16.70;1.00;;;;;;5078089;28;20192;-96
2023/03/18 12:39:20;;;;;;;4.87;1.63;;;16.70;1.00;;;;;;5077727;28;20197;-87
2023/03/18 12:41:51;;;;;;;3.40;1.40;;;16.70;1.00;;;;;;5078581;28;20196;-87
2023/03/18 12:44:57;;;;;;;3.57;1.40;;;16.70;1.00;;;;;;5078141;28;20193;-90
2023/03/18 12:47:48;;;;;;;3.37;1.60;;;16.80;1.00;;;;;;5076951;28;20166;-94
2023/03/18 12:50:39;;;;;;;4.43;1.73;;;16.80;1.00;;;;;;5076970;28;20193;-86
2023/03/18 12:53:24;;;;;;;3.93;1.57;;;17.00;1.00;;;;;;5078554;28;20177;-86
2023/03/18 12:56:26;;;;;;;4.47;2.03;;;17.20;1.00;;;;;;5078538;28;20172;-88